sensor_id;sensor_type;location;lat;lon;timestamp;P1;durP1;ratioP1;P2;durP2;ratioP2
11681;SDS011;5897;42.640;23.310;2022-10-26T00:02:10;11.88;;;3.88;;
11681;SDS011;5897;42.640;23.310;2022-10-26T00:04:37;13.05;;;4.22;;
11681;SDS011;5897;42.640;23.310;2022-10-26T00:07:03;11.00;;;3.90;;
11681;SDS011;5897;42.640;23.310;2022-10-26T00:09:30;10.15;;;3.78;;
11681;SDS011;5897;42.640;23.310;2022-10-26T00:11:57;8.07;;;3.72;;
11681;SDS011;5897;42.640;23.310;2022-10-26T00:14:25;9.38;;;3.58;;
11681;SDS011;5897;42.640;23.310;2022-10-26T00:16:52;8.30;;;3.40;;
11681;SDS011;5897;42.640;23.310;2022-10-26T00:19:18;9.07;;;3.63;;
11681;SDS011;5897;42.640;23.310;2022-10-26T00:21:45;9.27;;;3.40;;
11681;SDS011;5897;42.640;23.310;2022-10-26T00:24:12;6.40;;;3.40;;
11681;SDS011;5897;42.640;23.310;2022-10-26T00:26:39;9.02;;;3.75;;
11681;SDS011;5897;42.640;23.310;2022-10-26T00:29:06;6.22;;;3.40;;
11681;SDS011;5897;42.640;23.310;2022-10-26T00:31:34;6.03;;;2.95;;
11681;SDS011;5897;42.640;23.310;2022-10-26T00:34:01;8.52;;;3.53;;
11681;SDS011;5897;42.640;23.310;2022-10-26T00:36:27;8.43;;;3.28;;
11681;SDS011;5897;42.640;23.310;2022-10-26T00:38:55;9.15;;;3.30;;
11681;SDS011;5897;42.640;23.310;2022-10-26T00:41:23;8.55;;;3.70;;
11681;SDS011;5897;42.640;23.310;2022-10-26T00:43:51;5.95;;;3.03;;
11681;SDS011;5897;42.640;23.310;2022-10-26T00:46:19;7.00;;;3.25;;
11681;SDS011;5897;42.640;23.310;2022-10-26T00:48:50;5.68;;;3.58;;
11681;SDS011;5897;42.640;23.310;2022-10-26T00:51:22;7.13;;;3.03;;
11681;SDS011;5897;42.640;23.310;2022-10-26T00:53:52;4.10;;;2.70;;
11681;SDS011;5897;42.640;23.310;2022-10-26T00:56:20;7.13;;;2.88;;
11681;SDS011;5897;42.640;23.310;2022-10-26T00:58:47;9.38;;;3.30;;
11681;SDS011;5897;42.640;23.310;2022-10-26T01:01:14;4.57;;;2.67;;
11681;SDS011;5897;42.640;23.310;2022-10-26T01:03:41;7.22;;;2.95;;
11681;SDS011;5897;42.640;23.310;2022-10-26T01:06:10;4.95;;;2.72;;
11681;SDS011;5897;42.640;23.310;2022-10-26T01:08:39;6.40;;;2.92;;
11681;SDS011;5897;42.640;23.310;2022-10-26T01:11:07;7.35;;;2.45;;
11681;SDS011;5897;42.640;23.310;2022-10-26T01:13:35;8.60;;;2.80;;
11681;SDS011;5897;42.640;23.310;2022-10-26T01:16:06;6.72;;;2.30;;
11681;SDS011;5897;42.640;23.310;2022-10-26T01:19:02;2.97;;;2.20;;
11681;SDS011;5897;42.640;23.310;2022-10-26T01:21:58;4.03;;;2.20;;
11681;SDS011;5897;42.640;23.310;2022-10-26T01:24:38;3.03;;;2.03;;
11681;SDS011;5897;42.640;23.310;2022-10-26T01:27:19;4.43;;;2.30;;
11681;SDS011;5897;42.640;23.310;2022-10-26T01:35:48;3.97;;;2.60;;
11681;SDS011;5897;42.640;23.310;2022-10-26T01:38:22;2.40;;;2.10;;
11681;SDS011;5897;42.640;23.310;2022-10-26T01:40:53;7.35;;;2.53;;
11681;SDS011;5897;42.640;23.310;2022-10-26T01:43:25;5.75;;;2.55;;
11681;SDS011;5897;42.640;23.310;2022-10-26T01:45:57;3.50;;;2.50;;
11681;SDS011;5897;42.640;23.310;2022-10-26T01:48:24;4.05;;;2.30;;
11681;SDS011;5897;42.640;23.310;2022-10-26T01:50:53;6.65;;;2.55;;
11681;SDS011;5897;42.640;23.310;2022-10-26T01:53:21;5.80;;;2.80;;
11681;SDS011;5897;42.640;23.310;2022-10-26T01:55:51;6.57;;;3.13;;
11681;SDS011;5897;42.640;23.310;2022-10-26T02:01:15;4.40;;;2.33;;
11681;SDS011;5897;42.640;23.310;2022-10-26T02:03:52;8.68;;;2.60;;
11681;SDS011;5897;42.640;23.310;2022-10-26T02:06:29;5.03;;;2.45;;
11681;SDS011;5897;42.640;23.310;2022-10-26T02:09:05;4.15;;;2.42;;
11681;SDS011;5897;42.640;23.310;2022-10-26T02:11:41;4.32;;;2.05;;
11681;SDS011;5897;42.640;23.310;2022-10-26T02:14:13;5.80;;;2.53;;
11681;SDS011;5897;42.640;23.310;2022-10-26T02:16:50;4.25;;;2.10;;
11681;SDS011;5897;42.640;23.310;2022-10-26T02:19:28;4.43;;;2.30;;
11681;SDS011;5897;42.640;23.310;2022-10-26T02:22:01;6.43;;;2.28;;
11681;SDS011;5897;42.640;23.310;2022-10-26T02:24:31;2.97;;;2.30;;
11681;SDS011;5897;42.640;23.310;2022-10-26T02:27:00;5.25;;;2.50;;
11681;SDS011;5897;42.640;23.310;2022-10-26T02:29:29;4.40;;;2.50;;
11681;SDS011;5897;42.640;23.310;2022-10-26T02:31:59;5.70;;;2.53;;
11681;SDS011;5897;42.640;23.310;2022-10-26T02:34:28;6.15;;;2.70;;
11681;SDS011;5897;42.640;23.310;2022-10-26T02:36:56;7.78;;;2.95;;
11681;SDS011;5897;42.640;23.310;2022-10-26T02:39:26;5.13;;;2.53;;
11681;SDS011;5897;42.640;23.310;2022-10-26T02:41:57;5.45;;;2.50;;
11681;SDS011;5897;42.640;23.310;2022-10-26T02:44:28;4.97;;;2.25;;
11681;SDS011;5897;42.640;23.310;2022-10-26T02:46:59;4.20;;;2.40;;
11681;SDS011;5897;42.640;23.310;2022-10-26T02:49:27;7.88;;;2.45;;
11681;SDS011;5897;42.640;23.310;2022-10-26T02:51:57;3.33;;;2.30;;
11681;SDS011;5897;42.640;23.310;2022-10-26T02:54:31;7.55;;;2.40;;
11681;SDS011;5897;42.640;23.310;2022-10-26T02:57:07;7.50;;;2.55;;
11681;SDS011;5897;42.640;23.310;2022-10-26T02:59:37;6.10;;;2.30;;
11681;SDS011;5897;42.640;23.310;2022-10-26T03:02:09;4.20;;;2.70;;
11681;SDS011;5897;42.640;23.310;2022-10-26T03:04:37;5.90;;;2.63;;
11681;SDS011;5897;42.640;23.310;2022-10-26T03:07:04;5.45;;;2.53;;
11681;SDS011;5897;42.640;23.310;2022-10-26T03:09:31;5.90;;;2.58;;
11681;SDS011;5897;42.640;23.310;2022-10-26T03:11:57;6.20;;;2.67;;
11681;SDS011;5897;42.640;23.310;2022-10-26T03:14:24;6.05;;;2.90;;
11681;SDS011;5897;42.640;23.310;2022-10-26T03:16:51;9.20;;;2.70;;
11681;SDS011;5897;42.640;23.310;2022-10-26T03:19:19;5.50;;;3.38;;
11681;SDS011;5897;42.640;23.310;2022-10-26T03:21:46;4.05;;;2.63;;
11681;SDS011;5897;42.640;23.310;2022-10-26T03:24:12;8.73;;;2.80;;
11681;SDS011;5897;42.640;23.310;2022-10-26T03:26:39;6.00;;;3.10;;
11681;SDS011;5897;42.640;23.310;2022-10-26T03:29:06;8.27;;;3.50;;
11681;SDS011;5897;42.640;23.310;2022-10-26T03:31:33;7.00;;;3.30;;
11681;SDS011;5897;42.640;23.310;2022-10-26T03:34:00;7.35;;;3.10;;
11681;SDS011;5897;42.640;23.310;2022-10-26T03:36:28;7.93;;;4.18;;
11681;SDS011;5897;42.640;23.310;2022-10-26T03:38:55;9.25;;;3.97;;
11681;SDS011;5897;42.640;23.310;2022-10-26T03:41:21;6.18;;;3.90;;
11681;SDS011;5897;42.640;23.310;2022-10-26T03:43:48;8.93;;;4.13;;
11681;SDS011;5897;42.640;23.310;2022-10-26T03:46:15;6.40;;;3.47;;
11681;SDS011;5897;42.640;23.310;2022-10-26T03:48:41;6.65;;;3.97;;
11681;SDS011;5897;42.640;23.310;2022-10-26T03:51:08;6.38;;;3.55;;
11681;SDS011;5897;42.640;23.310;2022-10-26T03:53:36;8.85;;;4.10;;
11681;SDS011;5897;42.640;23.310;2022-10-26T03:56:03;6.75;;;3.55;;
11681;SDS011;5897;42.640;23.310;2022-10-26T03:58:30;8.52;;;4.05;;
11681;SDS011;5897;42.640;23.310;2022-10-26T04:00:57;7.47;;;4.10;;
11681;SDS011;5897;42.640;23.310;2022-10-26T04:03:24;9.40;;;4.30;;
11681;SDS011;5897;42.640;23.310;2022-10-26T04:05:51;6.18;;;4.18;;
11681;SDS011;5897;42.640;23.310;2022-10-26T04:08:17;9.65;;;4.05;;
11681;SDS011;5897;42.640;23.310;2022-10-26T04:10:45;6.82;;;4.38;;
11681;SDS011;5897;42.640;23.310;2022-10-26T04:13:12;7.75;;;4.22;;
11681;SDS011;5897;42.640;23.310;2022-10-26T04:15:39;9.65;;;3.80;;
11681;SDS011;5897;42.640;23.310;2022-10-26T04:18:07;8.25;;;4.03;;
11681;SDS011;5897;42.640;23.310;2022-10-26T04:20:37;6.30;;;4.07;;
11681;SDS011;5897;42.640;23.310;2022-10-26T04:23:06;5.70;;;3.40;;
11681;SDS011;5897;42.640;23.310;2022-10-26T04:25:35;5.70;;;3.35;;
11681;SDS011;5897;42.640;23.310;2022-10-26T04:28:04;5.70;;;3.42;;
11681;SDS011;5897;42.640;23.310;2022-10-26T04:30:32;6.13;;;2.90;;
11681;SDS011;5897;42.640;23.310;2022-10-26T04:32:59;5.95;;;3.25;;
11681;SDS011;5897;42.640;23.310;2022-10-26T04:35:26;6.13;;;3.42;;
11681;SDS011;5897;42.640;23.310;2022-10-26T04:37:55;6.95;;;3.63;;
11681;SDS011;5897;42.640;23.310;2022-10-26T04:40:23;5.00;;;3.40;;
11681;SDS011;5897;42.640;23.310;2022-10-26T04:42:49;6.30;;;3.67;;
11681;SDS011;5897;42.640;23.310;2022-10-26T04:45:17;9.85;;;3.75;;
11681;SDS011;5897;42.640;23.310;2022-10-26T04:47:44;6.60;;;3.90;;
11681;SDS011;5897;42.640;23.310;2022-10-26T04:50:11;10.40;;;4.50;;
11681;SDS011;5897;42.640;23.310;2022-10-26T04:52:39;11.63;;;4.78;;
11681;SDS011;5897;42.640;23.310;2022-10-26T04:55:06;8.07;;;3.70;;
11681;SDS011;5897;42.640;23.310;2022-10-26T04:57:33;5.93;;;3.58;;
11681;SDS011;5897;42.640;23.310;2022-10-26T05:00:01;6.15;;;3.28;;
11681;SDS011;5897;42.640;23.310;2022-10-26T05:02:30;5.38;;;3.35;;
11681;SDS011;5897;42.640;23.310;2022-10-26T05:04:57;7.18;;;3.83;;
11681;SDS011;5897;42.640;23.310;2022-10-26T05:07:24;8.85;;;3.47;;
11681;SDS011;5897;42.640;23.310;2022-10-26T05:09:51;8.43;;;3.95;;
11681;SDS011;5897;42.640;23.310;2022-10-26T05:12:17;5.47;;;3.30;;
11681;SDS011;5897;42.640;23.310;2022-10-26T05:14:44;5.70;;;3.42;;
11681;SDS011;5897;42.640;23.310;2022-10-26T05:17:11;12.65;;;4.25;;
11681;SDS011;5897;42.640;23.310;2022-10-26T05:19:40;8.40;;;4.32;;
11681;SDS011;5897;42.640;23.310;2022-10-26T05:22:06;7.18;;;4.10;;
11681;SDS011;5897;42.640;23.310;2022-10-26T05:24:33;12.13;;;4.57;;
11681;SDS011;5897;42.640;23.310;2022-10-26T05:27:00;11.10;;;4.95;;
11681;SDS011;5897;42.640;23.310;2022-10-26T05:29:27;10.82;;;4.43;;
11681;SDS011;5897;42.640;23.310;2022-10-26T05:31:53;9.77;;;4.55;;
11681;SDS011;5897;42.640;23.310;2022-10-26T05:34:20;8.35;;;4.68;;
11681;SDS011;5897;42.640;23.310;2022-10-26T05:36:48;11.02;;;3.97;;
11681;SDS011;5897;42.640;23.310;2022-10-26T05:39:18;7.97;;;4.00;;
11681;SDS011;5897;42.640;23.310;2022-10-26T05:41:45;13.35;;;4.47;;
11681;SDS011;5897;42.640;23.310;2022-10-26T05:44:12;10.38;;;5.18;;
11681;SDS011;5897;42.640;23.310;2022-10-26T05:46:38;12.02;;;4.78;;
11681;SDS011;5897;42.640;23.310;2022-10-26T05:49:05;12.98;;;4.90;;
11681;SDS011;5897;42.640;23.310;2022-10-26T05:51:32;9.13;;;4.75;;
11681;SDS011;5897;42.640;23.310;2022-10-26T05:54:02;11.55;;;5.85;;
11681;SDS011;5897;42.640;23.310;2022-10-26T05:56:32;13.93;;;5.70;;
11681;SDS011;5897;42.640;23.310;2022-10-26T05:59:01;9.52;;;5.55;;
11681;SDS011;5897;42.640;23.310;2022-10-26T06:01:30;19.17;;;5.30;;
11681;SDS011;5897;42.640;23.310;2022-10-26T06:04:09;14.00;;;5.72;;
11681;SDS011;5897;42.640;23.310;2022-10-26T06:06:45;14.45;;;5.18;;
11681;SDS011;5897;42.640;23.310;2022-10-26T06:09:19;15.90;;;5.80;;
11681;SDS011;5897;42.640;23.310;2022-10-26T06:11:46;16.30;;;5.32;;
11681;SDS011;5897;42.640;23.310;2022-10-26T06:14:13;12.93;;;4.95;;
11681;SDS011;5897;42.640;23.310;2022-10-26T06:16:45;10.23;;;4.63;;
11681;SDS011;5897;42.640;23.310;2022-10-26T06:19:40;10.73;;;4.30;;
11681;SDS011;5897;42.640;23.310;2022-10-26T06:22:25;8.80;;;4.47;;
11681;SDS011;5897;42.640;23.310;2022-10-26T06:25:05;9.75;;;4.70;;
11681;SDS011;5897;42.640;23.310;2022-10-26T06:27:41;8.55;;;4.32;;
11681;SDS011;5897;42.640;23.310;2022-10-26T06:30:14;12.20;;;4.57;;
11681;SDS011;5897;42.640;23.310;2022-10-26T06:32:48;5.70;;;4.20;;
11681;SDS011;5897;42.640;23.310;2022-10-26T06:35:22;5.85;;;4.13;;
11681;SDS011;5897;42.640;23.310;2022-10-26T06:37:52;8.52;;;4.43;;
11681;SDS011;5897;42.640;23.310;2022-10-26T06:40:23;10.32;;;4.55;;
11681;SDS011;5897;42.640;23.310;2022-10-26T06:42:51;12.77;;;4.85;;
11681;SDS011;5897;42.640;23.310;2022-10-26T06:45:19;10.20;;;5.60;;
11681;SDS011;5897;42.640;23.310;2022-10-26T06:47:49;8.63;;;4.28;;
11681;SDS011;5897;42.640;23.310;2022-10-26T06:50:26;6.03;;;3.90;;
11681;SDS011;5897;42.640;23.310;2022-10-26T06:53:02;8.50;;;4.13;;
11681;SDS011;5897;42.640;23.310;2022-10-26T06:55:43;7.95;;;4.28;;
11681;SDS011;5897;42.640;23.310;2022-10-26T06:58:15;7.15;;;3.95;;
11681;SDS011;5897;42.640;23.310;2022-10-26T07:00:45;6.63;;;3.83;;
11681;SDS011;5897;42.640;23.310;2022-10-26T07:03:16;8.82;;;4.00;;
11681;SDS011;5897;42.640;23.310;2022-10-26T07:05:43;9.43;;;4.82;;
11681;SDS011;5897;42.640;23.310;2022-10-26T07:08:11;9.23;;;3.85;;
11681;SDS011;5897;42.640;23.310;2022-10-26T07:10:38;8.13;;;4.03;;
11681;SDS011;5897;42.640;23.310;2022-10-26T07:13:08;7.45;;;4.00;;
11681;SDS011;5897;42.640;23.310;2022-10-26T07:15:36;5.88;;;3.65;;
11681;SDS011;5897;42.640;23.310;2022-10-26T07:18:03;10.25;;;4.60;;
11681;SDS011;5897;42.640;23.310;2022-10-26T07:20:34;7.70;;;4.68;;
11681;SDS011;5897;42.640;23.310;2022-10-26T07:23:03;11.98;;;4.88;;
11681;SDS011;5897;42.640;23.310;2022-10-26T07:25:32;8.30;;;4.53;;
11681;SDS011;5897;42.640;23.310;2022-10-26T07:28:03;7.93;;;4.10;;
11681;SDS011;5897;42.640;23.310;2022-10-26T07:30:32;7.70;;;4.25;;
11681;SDS011;5897;42.640;23.310;2022-10-26T07:33:00;11.32;;;4.93;;
11681;SDS011;5897;42.640;23.310;2022-10-26T07:35:29;12.45;;;4.07;;
11681;SDS011;5897;42.640;23.310;2022-10-26T07:37:56;13.68;;;3.67;;
11681;SDS011;5897;42.640;23.310;2022-10-26T07:40:24;9.52;;;4.10;;
11681;SDS011;5897;42.640;23.310;2022-10-26T07:42:54;10.77;;;4.45;;
11681;SDS011;5897;42.640;23.310;2022-10-26T07:45:22;7.95;;;3.92;;
11681;SDS011;5897;42.640;23.310;2022-10-26T07:47:52;7.78;;;4.18;;
11681;SDS011;5897;42.640;23.310;2022-10-26T07:50:22;8.90;;;3.97;;
11681;SDS011;5897;42.640;23.310;2022-10-26T07:52:51;8.43;;;4.82;;
11681;SDS011;5897;42.640;23.310;2022-10-26T07:55:19;11.10;;;4.47;;
11681;SDS011;5897;42.640;23.310;2022-10-26T07:57:45;7.15;;;4.10;;
11681;SDS011;5897;42.640;23.310;2022-10-26T08:00:13;9.52;;;3.90;;
11681;SDS011;5897;42.640;23.310;2022-10-26T08:02:41;8.90;;;3.75;;
11681;SDS011;5897;42.640;23.310;2022-10-26T08:05:09;10.88;;;4.18;;
11681;SDS011;5897;42.640;23.310;2022-10-26T08:07:40;6.22;;;3.75;;
11681;SDS011;5897;42.640;23.310;2022-10-26T08:10:08;5.95;;;4.03;;
11681;SDS011;5897;42.640;23.310;2022-10-26T08:12:36;7.90;;;3.55;;
11681;SDS011;5897;42.640;23.310;2022-10-26T08:15:04;11.23;;;4.20;;
11681;SDS011;5897;42.640;23.310;2022-10-26T08:17:31;9.38;;;3.97;;
11681;SDS011;5897;42.640;23.310;2022-10-26T08:19:58;5.75;;;3.67;;
11681;SDS011;5897;42.640;23.310;2022-10-26T08:22:26;7.13;;;3.63;;
11681;SDS011;5897;42.640;23.310;2022-10-26T08:24:54;7.88;;;3.53;;
11681;SDS011;5897;42.640;23.310;2022-10-26T08:27:20;6.47;;;3.78;;
11681;SDS011;5897;42.640;23.310;2022-10-26T08:29:47;9.25;;;4.07;;
11681;SDS011;5897;42.640;23.310;2022-10-26T08:32:14;6.57;;;3.60;;
11681;SDS011;5897;42.640;23.310;2022-10-26T08:34:40;8.02;;;3.55;;
11681;SDS011;5897;42.640;23.310;2022-10-26T08:37:07;7.05;;;3.53;;
11681;SDS011;5897;42.640;23.310;2022-10-26T08:39:35;5.65;;;3.53;;
11681;SDS011;5897;42.640;23.310;2022-10-26T08:42:03;6.82;;;3.75;;
11681;SDS011;5897;42.640;23.310;2022-10-26T08:44:36;6.20;;;3.35;;
11681;SDS011;5897;42.640;23.310;2022-10-26T08:47:09;12.68;;;4.10;;
11681;SDS011;5897;42.640;23.310;2022-10-26T08:49:43;9.73;;;3.85;;
11681;SDS011;5897;42.640;23.310;2022-10-26T08:52:14;6.15;;;3.38;;
11681;SDS011;5897;42.640;23.310;2022-10-26T08:54:47;4.05;;;3.10;;
11681;SDS011;5897;42.640;23.310;2022-10-26T08:57:18;5.60;;;3.30;;
11681;SDS011;5897;42.640;23.310;2022-10-26T08:59:52;7.65;;;3.22;;
11681;SDS011;5897;42.640;23.310;2022-10-26T09:02:22;10.95;;;3.40;;
11681;SDS011;5897;42.640;23.310;2022-10-26T09:04:50;5.25;;;3.08;;
11681;SDS011;5897;42.640;23.310;2022-10-26T09:07:22;5.47;;;2.92;;
11681;SDS011;5897;42.640;23.310;2022-10-26T09:10:01;8.07;;;2.75;;
11681;SDS011;5897;42.640;23.310;2022-10-26T09:12:38;7.95;;;2.97;;
11681;SDS011;5897;42.640;23.310;2022-10-26T09:15:13;8.00;;;3.30;;
11681;SDS011;5897;42.640;23.310;2022-10-26T09:17:51;9.43;;;3.08;;
11681;SDS011;5897;42.640;23.310;2022-10-26T09:20:38;8.82;;;2.70;;
11681;SDS011;5897;42.640;23.310;2022-10-26T09:23:18;5.40;;;2.95;;
11681;SDS011;5897;42.640;23.310;2022-10-26T09:26:02;6.22;;;2.55;;
11681;SDS011;5897;42.640;23.310;2022-10-26T09:28:32;4.22;;;2.60;;
11681;SDS011;5897;42.640;23.310;2022-10-26T09:31:03;4.65;;;2.13;;
11681;SDS011;5897;42.640;23.310;2022-10-26T09:33:32;3.90;;;2.30;;
11681;SDS011;5897;42.640;23.310;2022-10-26T09:36:02;4.25;;;2.50;;
11681;SDS011;5897;42.640;23.310;2022-10-26T09:38:35;3.78;;;2.20;;
11681;SDS011;5897;42.640;23.310;2022-10-26T09:41:12;4.93;;;2.00;;
11681;SDS011;5897;42.640;23.310;2022-10-26T09:43:47;4.50;;;1.80;;
11681;SDS011;5897;42.640;23.310;2022-10-26T09:46:20;5.93;;;2.15;;
11681;SDS011;5897;42.640;23.310;2022-10-26T09:48:55;4.68;;;2.00;;
11681;SDS011;5897;42.640;23.310;2022-10-26T09:51:34;7.15;;;2.25;;
11681;SDS011;5897;42.640;23.310;2022-10-26T09:54:13;3.95;;;1.83;;
11681;SDS011;5897;42.640;23.310;2022-10-26T09:56:44;3.95;;;2.00;;
11681;SDS011;5897;42.640;23.310;2022-10-26T09:59:15;6.55;;;2.35;;
11681;SDS011;5897;42.640;23.310;2022-10-26T10:01:46;5.45;;;2.00;;
11681;SDS011;5897;42.640;23.310;2022-10-26T10:04:17;4.82;;;2.00;;
11681;SDS011;5897;42.640;23.310;2022-10-26T10:06:47;4.25;;;1.88;;
11681;SDS011;5897;42.640;23.310;2022-10-26T10:09:15;6.78;;;2.20;;
11681;SDS011;5897;42.640;23.310;2022-10-26T10:11:47;10.70;;;2.35;;
11681;SDS011;5897;42.640;23.310;2022-10-26T10:14:21;5.65;;;2.00;;
11681;SDS011;5897;42.640;23.310;2022-10-26T10:16:50;4.78;;;1.98;;
11681;SDS011;5897;42.640;23.310;2022-10-26T10:19:23;3.17;;;2.00;;
11681;SDS011;5897;42.640;23.310;2022-10-26T10:21:53;4.30;;;2.00;;
11681;SDS011;5897;42.640;23.310;2022-10-26T10:24:22;4.13;;;2.00;;
11681;SDS011;5897;42.640;23.310;2022-10-26T10:26:59;4.93;;;1.83;;
11681;SDS011;5897;42.640;23.310;2022-10-26T10:29:28;7.18;;;2.05;;
11681;SDS011;5897;42.640;23.310;2022-10-26T10:31:57;6.72;;;2.05;;
11681;SDS011;5897;42.640;23.310;2022-10-26T10:34:24;4.68;;;2.40;;
11681;SDS011;5897;42.640;23.310;2022-10-26T10:36:52;7.90;;;2.17;;
11681;SDS011;5897;42.640;23.310;2022-10-26T10:39:35;6.75;;;2.03;;
11681;SDS011;5897;42.640;23.310;2022-10-26T10:42:13;5.13;;;1.80;;
11681;SDS011;5897;42.640;23.310;2022-10-26T10:44:43;6.95;;;2.30;;
11681;SDS011;5897;42.640;23.310;2022-10-26T10:47:19;7.38;;;2.00;;
11681;SDS011;5897;42.640;23.310;2022-10-26T10:49:49;7.30;;;2.35;;
11681;SDS011;5897;42.640;23.310;2022-10-26T10:52:23;5.65;;;2.10;;
11681;SDS011;5897;42.640;23.310;2022-10-26T10:54:53;7.18;;;3.38;;
11681;SDS011;5897;42.640;23.310;2022-10-26T10:57:28;3.55;;;2.30;;
11681;SDS011;5897;42.640;23.310;2022-10-26T11:00:05;5.38;;;2.63;;
11681;SDS011;5897;42.640;23.310;2022-10-26T11:02:53;9.68;;;3.10;;
11681;SDS011;5897;42.640;23.310;2022-10-26T11:06:00;6.32;;;2.42;;
11681;SDS011;5897;42.640;23.310;2022-10-26T11:08:34;5.93;;;2.20;;
11681;SDS011;5897;42.640;23.310;2022-10-26T11:11:08;5.25;;;2.35;;
11681;SDS011;5897;42.640;23.310;2022-10-26T11:13:38;8.98;;;3.03;;
11681;SDS011;5897;42.640;23.310;2022-10-26T11:16:12;4.82;;;2.33;;
11681;SDS011;5897;42.640;23.310;2022-10-26T11:18:42;7.28;;;2.17;;
11681;SDS011;5897;42.640;23.310;2022-10-26T11:21:16;4.40;;;2.25;;
11681;SDS011;5897;42.640;23.310;2022-10-26T11:23:51;3.53;;;1.85;;
11681;SDS011;5897;42.640;23.310;2022-10-26T11:26:23;8.02;;;2.58;;
11681;SDS011;5897;42.640;23.310;2022-10-26T11:28:58;3.08;;;1.77;;
11681;SDS011;5897;42.640;23.310;2022-10-26T11:31:31;3.65;;;1.77;;
11681;SDS011;5897;42.640;23.310;2022-10-26T11:34:07;5.47;;;1.58;;
11681;SDS011;5897;42.640;23.310;2022-10-26T11:36:42;6.40;;;1.83;;
11681;SDS011;5897;42.640;23.310;2022-10-26T11:39:16;5.10;;;2.30;;
11681;SDS011;5897;42.640;23.310;2022-10-26T11:41:48;3.83;;;1.88;;
11681;SDS011;5897;42.640;23.310;2022-10-26T11:44:24;3.97;;;1.40;;
11681;SDS011;5897;42.640;23.310;2022-10-26T11:46:54;5.25;;;1.30;;
11681;SDS011;5897;42.640;23.310;2022-10-26T11:49:27;3.58;;;1.50;;
11681;SDS011;5897;42.640;23.310;2022-10-26T11:52:01;4.15;;;1.60;;
11681;SDS011;5897;42.640;23.310;2022-10-26T11:54:36;5.22;;;1.65;;
11681;SDS011;5897;42.640;23.310;2022-10-26T11:57:06;2.72;;;0.95;;
11681;SDS011;5897;42.640;23.310;2022-10-26T11:59:36;3.70;;;1.13;;
11681;SDS011;5897;42.640;23.310;2022-10-26T12:02:09;3.22;;;1.00;;
11681;SDS011;5897;42.640;23.310;2022-10-26T12:04:40;2.88;;;1.08;;
11681;SDS011;5897;42.640;23.310;2022-10-26T12:07:10;3.65;;;1.38;;
11681;SDS011;5897;42.640;23.310;2022-10-26T12:09:44;3.03;;;1.00;;
11681;SDS011;5897;42.640;23.310;2022-10-26T12:12:13;4.40;;;1.00;;
11681;SDS011;5897;42.640;23.310;2022-10-26T12:14:49;3.85;;;1.33;;
11681;SDS011;5897;42.640;23.310;2022-10-26T12:17:23;4.80;;;0.93;;
11681;SDS011;5897;42.640;23.310;2022-10-26T12:19:57;3.63;;;1.30;;
11681;SDS011;5897;42.640;23.310;2022-10-26T12:22:31;1.67;;;1.00;;
11681;SDS011;5897;42.640;23.310;2022-10-26T12:25:06;1.55;;;0.80;;
11681;SDS011;5897;42.640;23.310;2022-10-26T12:27:54;1.73;;;0.93;;
11681;SDS011;5897;42.640;23.310;2022-10-26T12:30:25;1.75;;;0.90;;
11681;SDS011;5897;42.640;23.310;2022-10-26T12:32:54;5.32;;;1.00;;
11681;SDS011;5897;42.640;23.310;2022-10-26T12:35:35;2.03;;;1.00;;
11681;SDS011;5897;42.640;23.310;2022-10-26T12:41:07;4.43;;;1.00;;
11681;SDS011;5897;42.640;23.310;2022-10-26T12:43:44;1.30;;;1.00;;
11681;SDS011;5897;42.640;23.310;2022-10-26T12:52:26;2.75;;;0.93;;
11681;SDS011;5897;42.640;23.310;2022-10-26T13:04:15;3.55;;;1.15;;
11681;SDS011;5897;42.640;23.310;2022-10-26T13:06:53;3.33;;;1.10;;
11681;SDS011;5897;42.640;23.310;2022-10-26T13:09:35;3.05;;;0.85;;
11681;SDS011;5897;42.640;23.310;2022-10-26T13:12:02;1.55;;;0.70;;
11681;SDS011;5897;42.640;23.310;2022-10-26T13:14:30;7.00;;;1.08;;
11681;SDS011;5897;42.640;23.310;2022-10-26T13:17:01;4.00;;;0.90;;
11681;SDS011;5897;42.640;23.310;2022-10-26T13:19:35;1.10;;;0.68;;
11681;SDS011;5897;42.640;23.310;2022-10-26T13:22:12;1.75;;;0.75;;
11681;SDS011;5897;42.640;23.310;2022-10-26T13:24:45;1.83;;;0.70;;
11681;SDS011;5897;42.640;23.310;2022-10-26T13:27:38;1.75;;;0.90;;
11681;SDS011;5897;42.640;23.310;2022-10-26T13:33:07;7.13;;;1.00;;
11681;SDS011;5897;42.640;23.310;2022-10-26T13:35:41;3.45;;;0.80;;
11681;SDS011;5897;42.640;23.310;2022-10-26T13:38:10;2.72;;;0.77;;
11681;SDS011;5897;42.640;23.310;2022-10-26T13:40:38;1.75;;;0.60;;
11681;SDS011;5897;42.640;23.310;2022-10-26T13:43:06;2.08;;;0.70;;
11681;SDS011;5897;42.640;23.310;2022-10-26T13:45:45;4.15;;;0.82;;
11681;SDS011;5897;42.640;23.310;2022-10-26T13:48:19;3.40;;;0.90;;
11681;SDS011;5897;42.640;23.310;2022-10-26T13:50:55;4.07;;;1.05;;
11681;SDS011;5897;42.640;23.310;2022-10-26T13:53:23;1.67;;;0.80;;
11681;SDS011;5897;42.640;23.310;2022-10-26T13:56:00;1.60;;;1.00;;
11681;SDS011;5897;42.640;23.310;2022-10-26T13:58:32;3.25;;;1.08;;
11681;SDS011;5897;42.640;23.310;2022-10-26T14:01:11;3.35;;;0.90;;
11681;SDS011;5897;42.640;23.310;2022-10-26T14:03:40;3.13;;;1.20;;
11681;SDS011;5897;42.640;23.310;2022-10-26T14:06:12;4.65;;;1.05;;
11681;SDS011;5897;42.640;23.310;2022-10-26T14:08:43;2.85;;;1.25;;
11681;SDS011;5897;42.640;23.310;2022-10-26T14:11:14;2.67;;;1.15;;
11681;SDS011;5897;42.640;23.310;2022-10-26T14:13:43;3.30;;;0.95;;
11681;SDS011;5897;42.640;23.310;2022-10-26T14:16:12;2.33;;;1.20;;
11681;SDS011;5897;42.640;23.310;2022-10-26T14:18:40;4.63;;;1.98;;
11681;SDS011;5897;42.640;23.310;2022-10-26T14:21:11;4.15;;;1.30;;
11681;SDS011;5897;42.640;23.310;2022-10-26T14:23:44;3.35;;;1.25;;
11681;SDS011;5897;42.640;23.310;2022-10-26T14:26:17;2.03;;;1.20;;
11681;SDS011;5897;42.640;23.310;2022-10-26T14:28:46;2.95;;;1.40;;
11681;SDS011;5897;42.640;23.310;2022-10-26T14:31:19;2.47;;;1.27;;
11681;SDS011;5897;42.640;23.310;2022-10-26T14:33:48;5.97;;;1.58;;
11681;SDS011;5897;42.640;23.310;2022-10-26T14:36:17;2.88;;;2.00;;
11681;SDS011;5897;42.640;23.310;2022-10-26T14:38:47;2.72;;;1.65;;
11681;SDS011;5897;42.640;23.310;2022-10-26T14:41:17;6.25;;;1.77;;
11681;SDS011;5897;42.640;23.310;2022-10-26T14:43:45;4.63;;;1.90;;
11681;SDS011;5897;42.640;23.310;2022-10-26T14:46:13;6.45;;;2.40;;
11681;SDS011;5897;42.640;23.310;2022-10-26T14:48:48;5.55;;;2.35;;
11681;SDS011;5897;42.640;23.310;2022-10-26T14:51:20;5.40;;;2.35;;
11681;SDS011;5897;42.640;23.310;2022-10-26T14:53:51;1.75;;;1.50;;
11681;SDS011;5897;42.640;23.310;2022-10-26T14:56:21;5.63;;;1.70;;
11681;SDS011;5897;42.640;23.310;2022-10-26T14:58:49;5.45;;;1.90;;
11681;SDS011;5897;42.640;23.310;2022-10-26T15:01:23;3.63;;;1.23;;
11681;SDS011;5897;42.640;23.310;2022-10-26T15:03:53;3.55;;;1.40;;
11681;SDS011;5897;42.640;23.310;2022-10-26T15:06:30;3.42;;;1.30;;
11681;SDS011;5897;42.640;23.310;2022-10-26T15:08:59;4.40;;;1.60;;
11681;SDS011;5897;42.640;23.310;2022-10-26T15:11:29;7.22;;;1.50;;
11681;SDS011;5897;42.640;23.310;2022-10-26T15:13:58;2.92;;;1.40;;
11681;SDS011;5897;42.640;23.310;2022-10-26T15:16:26;1.77;;;1.50;;
11681;SDS011;5897;42.640;23.310;2022-10-26T15:18:55;5.65;;;1.60;;
11681;SDS011;5897;42.640;23.310;2022-10-26T15:21:25;4.03;;;1.80;;
11681;SDS011;5897;42.640;23.310;2022-10-26T15:23:57;5.15;;;1.70;;
11681;SDS011;5897;42.640;23.310;2022-10-26T15:26:24;3.92;;;1.65;;
11681;SDS011;5897;42.640;23.310;2022-10-26T15:28:52;2.92;;;1.40;;
11681;SDS011;5897;42.640;23.310;2022-10-26T15:31:32;5.90;;;1.63;;
11681;SDS011;5897;42.640;23.310;2022-10-26T15:34:09;6.13;;;1.77;;
11681;SDS011;5897;42.640;23.310;2022-10-26T15:36:40;4.90;;;1.98;;
11681;SDS011;5897;42.640;23.310;2022-10-26T15:39:09;5.05;;;2.17;;